Cfl Performer — PHLY — position and weather

sailwx.info

Track history (hours):
 
Tides and Currents Weather Stations Pressure Air Temp Water Temp Dewpoint Dewpoint Depression Visibility Wind Speed Wind Dir Waves Ship Positions

Cfl Performer

Last reported at 2015-May-25 23:23 UTC. Time now 2015-May-26 13:48 UTC.
Position N 47°18' W 002°08'.

Length 117 m; draft 5.5 m.

Type: Cargo ship. MMSI: 244989000.

Date/timePositionNaut miles runAvg speedWind from/ knotsBaromVisibWave heightAir tempDewpointWater temp
2015-May-25 23:23N 47°18' W 002°08'7 0.8
2015-May-25 14:17N 47°13' W 002°16'7 9.9
2015-May-25 13:33N 47°07' W 002°22'8 8.0
2015-May-25 12:33N 47°02' W 002°31'7 7.2
2015-May-25 11:33N 46°59' W 002°41'8 7.5
2015-May-25 10:32N 47°03' W 002°51'19 8.6
2015-May-25 08:21N 47°11' W 003°16'7 9.3
2015-May-25 07:33N 47°15' W 003°25'9 9.1
2015-May-25 06:33N 47°19' W 003°37'9 9.4
2015-May-25 05:33N 47°23' W 003°50'10 9.4
2015-May-25 04:32N 47°27' W 004°03'10 9.4
2015-May-25 03:30N 47°31' W 004°16'22 9.2
2015-May-25 01:09N 47°41' W 004°44'6 9.0
2015-May-25 00:31N 47°44' W 004°52'12 9.2
2015-May-24 23:14N 47°49' W 005°07'8 9.1
2015-May-24 22:23N 47°53' W 005°17'214 7.6
2015-May-23 18:04N 50°15' W 001°13'6012.2
2015-May-23 13:09N 50°31' E 000°17'6 9.8
2015-May-23 12:31N 50°33' E 000°27'1010.0
2015-May-23 11:31N 50°37' E 000°42'1111.2
2015-May-23 10:33N 50°43' E 000°55'1312.7
2015-May-23 09:33N 50°51' E 001°11'1313.5
2015-May-23 08:33N 51°01' E 001°26'1010.4
2015-May-23 07:34N 51°06' E 001°40'1010.4
2015-May-23 06:34N 51°03' E 001°56'1110.4
2015-May-23 05:33N 51°04' E 002°13'4 4.4
2015-May-23 04:32N 51°03' E 002°20'1 1.0
2015-May-23 03:32N 51°03' E 002°21'0 0.0
2015-May-23 01:14N 51°03' E 002°21'0 0.0
2015-May-22 22:23N 51°03' E 002°21'0 0.0
2015-May-22 21:05N 51°03' E 002°21'0 0.0
2015-May-22 18:32N 51°03' E 002°21'0 0.0
2015-May-22 17:32N 51°03' E 002°21'0 0.0
2015-May-22 16:29N 51°03' E 002°21'0 0.0
2015-May-22 15:26N 51°03' E 002°21'0 0.0
2015-May-22 14:20N 51°03' E 002°21'0 0.0
2015-May-22 11:23N 51°03' E 002°21'0 0.0
2015-May-22 09:29N 51°03' E 002°21'0 0.0
2015-May-22 07:20N 51°03' E 002°21'0 0.0
2015-May-22 06:14N 51°03' E 002°21'0 0.0
2015-May-22 05:08N 51°03' E 002°21'0 0.0
2015-May-22 04:14N 51°03' E 002°21'0 0.0
2015-May-22 02:14N 51°03' E 002°21'0 0.0
2015-May-22 00:17N 51°03' E 002°21'0 0.0
2015-May-21 23:05N 51°03' E 002°21'0 0.0
2015-May-21 22:05N 51°03' E 002°21'0 0.0
2015-May-21 21:26N 51°03' E 002°21'0 0.0
2015-May-21 20:23N 51°03' E 002°21'0 0.0
2015-May-21 19:11N 51°03' E 002°21'0 0.0
2015-May-21 18:29N 51°03' E 002°21'0 0.0
2015-May-21 17:29N 51°03' E 002°21'0 0.0
2015-May-21 16:32N 51°03' E 002°21'0 0.0
2015-May-21 15:32N 51°03' E 002°21'0 0.0
2015-May-21 14:32N 51°03' E 002°21'0 0.0
2015-May-21 13:29N 51°03' E 002°21'0 0.0
2015-May-21 12:32N 51°03' E 002°21'0 0.0
2015-May-21 11:32N 51°03' E 002°21'0 0.0
2015-May-21 10:32N 51°03' E 002°21'0 0.0
2015-May-21 07:32N 51°03' E 002°21'0 0.1
2015-May-21 06:20N 51°03' E 002°21'0 0.1
2015-May-21 02:31N 51°03' E 002°21'0 0.0
2015-May-21 01:13N 51°03' E 002°21'0 0.0
2015-May-21 00:31N 51°03' E 002°21'0 0.0
2015-May-20 23:31N 51°03' E 002°21'0 0.0
2015-May-20 22:28N 51°03' E 002°21'0 0.0
2015-May-20 21:31N 51°03' E 002°21'0 0.0
2015-May-20 20:22N 51°03' E 002°21'0 0.0
2015-May-20 19:25N 51°03' E 002°21'0 0.0
2015-May-20 18:25N 51°03' E 002°21'0 0.0
2015-May-20 11:31N 51°03' E 002°21'0 0.0
2015-May-20 10:28N 51°03' E 002°21'0 0.0
2015-May-20 09:28N 51°03' E 002°21'0 0.0
2015-May-20 08:22N 51°03' E 002°21'0 0.0
2015-May-20 07:13N 51°03' E 002°21'0 0.0
2015-May-20 06:04N 51°03' E 002°21'0 0.0
2015-May-20 05:31N 51°03' E 002°21'0 0.0
2015-May-20 04:25N 51°03' E 002°21'0 0.0
2015-May-20 01:16N 51°03' E 002°21'0 0.0
2015-May-20 00:28N 51°03' E 002°21'0 0.0
2015-May-19 22:25N 51°03' E 002°21'0 0.0
2015-May-19 21:25N 51°03' E 002°21'0 0.0
2015-May-19 20:31N 51°03' E 002°21'0 0.0
2015-May-19 13:25N 51°03' E 002°21'0 0.0
2015-May-19 10:10N 51°03' E 002°21'0 0.0
2015-May-19 09:16N 51°03' E 002°21'0 0.0
2015-May-19 08:31N 51°03' E 002°21'0 0.0
2015-May-19 07:22N 51°03' E 002°21'0 0.0
2015-May-19 05:22N 51°03' E 002°21'0 0.0
2015-May-19 04:04N 51°03' E 002°21'0 0.0
2015-May-18 21:19N 51°03' E 002°21'0 0.0
2015-May-18 20:19N 51°03' E 002°21'0 0.0
2015-May-18 19:22N 51°03' E 002°21'0 0.0
2015-May-18 18:31N 51°03' E 002°21'0 0.0
2015-May-18 11:07N 51°03' E 002°21'0 0.0
2015-May-18 10:04N 51°03' E 002°21'0 0.7
2015-May-18 09:23N 51°03' E 002°21'0 0.6
2015-May-18 08:33N 51°03' E 002°21'9 8.7
2015-May-18 07:32N 51°03' E 002°07'9 9.2
2015-May-18 06:33N 51°02' E 001°53'7 7.1
2015-May-18 05:33N 51°01' E 001°42'6 6.3
2015-May-18 04:33N 50°57' E 001°34'  
2015-May-15 23:29N 46°31' W 002°26'  
Track history (hours):
 
Tides and Currents Weather Stations Pressure Air Temp Water Temp Dewpoint Dewpoint Depression Visibility Wind Speed Wind Dir Waves Ship Positions

Cfl Performer

Last reported at 2015-May-25 23:23 UTC. Time now 2015-May-26 13:48 UTC.
Position N 47°18' W 002°08'.

Length 117 m; draft 5.5 m.

Type: Cargo ship. MMSI: 244989000.

Date/timePositionNaut miles runAvg speedWind from/ knotsBaromVisibWave heightAir tempDewpointWater temp
2015-May-25 23:23N 47°18' W 002°08'7 0.8
2015-May-25 14:17N 47°13' W 002°16'7 9.9
2015-May-25 13:33N 47°07' W 002°22'8 8.0
2015-May-25 12:33N 47°02' W 002°31'7 7.2
2015-May-25 11:33N 46°59' W 002°41'8 7.5
2015-May-25 10:32N 47°03' W 002°51'19 8.6
2015-May-25 08:21N 47°11' W 003°16'7 9.3
2015-May-25 07:33N 47°15' W 003°25'9 9.1
2015-May-25 06:33N 47°19' W 003°37'9 9.4
2015-May-25 05:33N 47°23' W 003°50'10 9.4
2015-May-25 04:32N 47°27' W 004°03'10 9.4
2015-May-25 03:30N 47°31' W 004°16'22 9.2
2015-May-25 01:09N 47°41' W 004°44'6 9.0
2015-May-25 00:31N 47°44' W 004°52'12 9.2
2015-May-24 23:14N 47°49' W 005°07'8 9.1
2015-May-24 22:23N 47°53' W 005°17'214 7.6
2015-May-23 18:04N 50°15' W 001°13'6012.2
2015-May-23 13:09N 50°31' E 000°17'6 9.8
2015-May-23 12:31N 50°33' E 000°27'1010.0
2015-May-23 11:31N 50°37' E 000°42'1111.2
2015-May-23 10:33N 50°43' E 000°55'1312.7
2015-May-23 09:33N 50°51' E 001°11'1313.5
2015-May-23 08:33N 51°01' E 001°26'1010.4
2015-May-23 07:34N 51°06' E 001°40'1010.4
2015-May-23 06:34N 51°03' E 001°56'1110.4
2015-May-23 05:33N 51°04' E 002°13'4 4.4
2015-May-23 04:32N 51°03' E 002°20'1 1.0
2015-May-23 03:32N 51°03' E 002°21'0 0.0
2015-May-23 01:14N 51°03' E 002°21'0 0.0
2015-May-22 22:23N 51°03' E 002°21'0 0.0
2015-May-22 21:05N 51°03' E 002°21'0 0.0
2015-May-22 18:32N 51°03' E 002°21'0 0.0
2015-May-22 17:32N 51°03' E 002°21'0 0.0
2015-May-22 16:29N 51°03' E 002°21'0 0.0
2015-May-22 15:26N 51°03' E 002°21'0 0.0
2015-May-22 14:20N 51°03' E 002°21'0 0.0
2015-May-22 11:23N 51°03' E 002°21'0 0.0
2015-May-22 09:29N 51°03' E 002°21'0 0.0
2015-May-22 07:20N 51°03' E 002°21'0 0.0
2015-May-22 06:14N 51°03' E 002°21'0 0.0
2015-May-22 05:08N 51°03' E 002°21'0 0.0
2015-May-22 04:14N 51°03' E 002°21'0 0.0
2015-May-22 02:14N 51°03' E 002°21'0 0.0
2015-May-22 00:17N 51°03' E 002°21'0 0.0
2015-May-21 23:05N 51°03' E 002°21'0 0.0
2015-May-21 22:05N 51°03' E 002°21'0 0.0
2015-May-21 21:26N 51°03' E 002°21'0 0.0
2015-May-21 20:23N 51°03' E 002°21'0 0.0
2015-May-21 19:11N 51°03' E 002°21'0 0.0
2015-May-21 18:29N 51°03' E 002°21'0 0.0
2015-May-21 17:29N 51°03' E 002°21'0 0.0
2015-May-21 16:32N 51°03' E 002°21'0 0.0
2015-May-21 15:32N 51°03' E 002°21'0 0.0
2015-May-21 14:32N 51°03' E 002°21'0 0.0
2015-May-21 13:29N 51°03' E 002°21'0 0.0
2015-May-21 12:32N 51°03' E 002°21'0 0.0
2015-May-21 11:32N 51°03' E 002°21'0 0.0
2015-May-21 10:32N 51°03' E 002°21'0 0.0
2015-May-21 07:32N 51°03' E 002°21'0 0.1
2015-May-21 06:20N 51°03' E 002°21'0 0.1
2015-May-21 02:31N 51°03' E 002°21'0 0.0
2015-May-21 01:13N 51°03' E 002°21'0 0.0
2015-May-21 00:31N 51°03' E 002°21'0 0.0
2015-May-20 23:31N 51°03' E 002°21'0 0.0
2015-May-20 22:28N 51°03' E 002°21'0 0.0
2015-May-20 21:31N 51°03' E 002°21'0 0.0
2015-May-20 20:22N 51°03' E 002°21'0 0.0
2015-May-20 19:25N 51°03' E 002°21'0 0.0
2015-May-20 18:25N 51°03' E 002°21'0 0.0
2015-May-20 11:31N 51°03' E 002°21'0 0.0
2015-May-20 10:28N 51°03' E 002°21'0 0.0
2015-May-20 09:28N 51°03' E 002°21'0 0.0
2015-May-20 08:22N 51°03' E 002°21'0 0.0
2015-May-20 07:13N 51°03' E 002°21'0 0.0
2015-May-20 06:04N 51°03' E 002°21'0 0.0
2015-May-20 05:31N 51°03' E 002°21'0 0.0
2015-May-20 04:25N 51°03' E 002°21'0 0.0
2015-May-20 01:16N 51°03' E 002°21'0 0.0
2015-May-20 00:28N 51°03' E 002°21'0 0.0
2015-May-19 22:25N 51°03' E 002°21'0 0.0
2015-May-19 21:25N 51°03' E 002°21'0 0.0
2015-May-19 20:31N 51°03' E 002°21'0 0.0
2015-May-19 13:25N 51°03' E 002°21'0 0.0
2015-May-19 10:10N 51°03' E 002°21'0 0.0
2015-May-19 09:16N 51°03' E 002°21'0 0.0
2015-May-19 08:31N 51°03' E 002°21'0 0.0
2015-May-19 07:22N 51°03' E 002°21'0 0.0
2015-May-19 05:22N 51°03' E 002°21'0 0.0
2015-May-19 04:04N 51°03' E 002°21'0 0.0
2015-May-18 21:19N 51°03' E 002°21'0 0.0
2015-May-18 20:19N 51°03' E 002°21'0 0.0
2015-May-18 19:22N 51°03' E 002°21'0 0.0
2015-May-18 18:31N 51°03' E 002°21'0 0.0
2015-May-18 11:07N 51°03' E 002°21'0 0.0
2015-May-18 10:04N 51°03' E 002°21'0 0.7
2015-May-18 09:23N 51°03' E 002°21'0 0.6
2015-May-18 08:33N 51°03' E 002°21'9 8.7
2015-May-18 07:32N 51°03' E 002°07'9 9.2
2015-May-18 06:33N 51°02' E 001°53'7 7.1
2015-May-18 05:33N 51°01' E 001°42'6 6.3
2015-May-18 04:33N 50°57' E 001°34'  
2015-May-15 23:29N 46°31' W 002°26'  

Dump ship's entire track history